Main page
METAR-TAF:

METAR-TAF

Airports :

Deauville – Normandie Airport

Deauville, France

latitude: 49-21-55N, longitude: 000-09-16E, elevation: 146 m

Current weather observation

The report was made 21 minutes ago, at 22:30 UTC
Wind 16 kt from the West
Temperature 14°C
Humidity 72%
Pressure 1020 hPa
Visibility 10 km or more
Broken clouds at a height of 2200 ft

METAR: LFRG 052230Z AUTO 27016KT 9999 BKN022 14/09 Q1020

Time: 00:51 (22:51 UTC)

Forecast

The report was made 8 hours and 51 minutes ago, at 14:00 UTC
Forecast valid from 05 at 15 UTC to 05 at 24 UTC
Wind 15 kt from the West with gusts up to 25 kt
Visibility 10 km or more
Broken clouds at a height of 2500 ft
Probability 30% :
Temporary
from 05 at 15 UTC to 05 at 16 UTC
Visibility: 4000 m
Broken clouds at a height of 500 ft
light rain, drizzle

TAF: LFRG 051400Z 0515/0524 27015G25KT 9999 BKN025 PROB30 TEMPO 0515/0516 4000 -RADZ BKN005

Weather observations and forecasts of more than 4000 airports (METAR and TAF reports).

The available stations are represented by yellow and red dots on the map.

Hover mouse over dot to see the name of the station.

Then click to see weather observations and forecasts.

To change the map : click on the green buttons with a black cross to zoom in, on the green button with a dash to zoom out, or on the green arrows for adjacent maps.


METAR-TAF: